sensor_id;sensor_type;location;lat;lon;timestamp;temperature;humidity
19007;DHT22;9636;47.382;8.480;2022-11-12T00:01:38;9.40;99.90
19007;DHT22;9636;47.382;8.480;2022-11-12T00:04:05;9.40;99.90
19007;DHT22;9636;47.382;8.480;2022-11-12T00:06:33;9.30;99.90
19007;DHT22;9636;47.382;8.480;2022-11-12T00:09:00;9.30;99.90
19007;DHT22;9636;47.382;8.480;2022-11-12T00:11:27;9.30;99.90
19007;DHT22;9636;47.382;8.480;2022-11-12T00:13:54;9.20;99.90
19007;DHT22;9636;47.382;8.480;2022-11-12T00:16:22;9.20;99.90
19007;DHT22;9636;47.382;8.480;2022-11-12T00:18:49;9.20;99.90
19007;DHT22;9636;47.382;8.480;2022-11-12T00:21:16;9.30;99.90
19007;DHT22;9636;47.382;8.480;2022-11-12T00:23:42;9.20;99.90
19007;DHT22;9636;47.382;8.480;2022-11-12T00:26:09;9.20;99.90
19007;DHT22;9636;47.382;8.480;2022-11-12T00:28:36;9.10;99.90
19007;DHT22;9636;47.382;8.480;2022-11-12T00:31:08;9.10;99.90
19007;DHT22;9636;47.382;8.480;2022-11-12T00:33:39;9.00;99.90
19007;DHT22;9636;47.382;8.480;2022-11-12T00:36:07;9.00;99.90
19007;DHT22;9636;47.382;8.480;2022-11-12T00:38:34;9.00;99.90
19007;DHT22;9636;47.382;8.480;2022-11-12T00:41:01;9.10;99.90
19007;DHT22;9636;47.382;8.480;2022-11-12T00:43:28;9.00;99.90
19007;DHT22;9636;47.382;8.480;2022-11-12T00:45:54;9.10;99.90
19007;DHT22;9636;47.382;8.480;2022-11-12T00:48:21;9.10;99.90
19007;DHT22;9636;47.382;8.480;2022-11-12T00:50:49;9.10;99.90
19007;DHT22;9636;47.382;8.480;2022-11-12T00:53:16;9.10;99.90
19007;DHT22;9636;47.382;8.480;2022-11-12T00:55:43;9.10;99.90
19007;DHT22;9636;47.382;8.480;2022-11-12T00:58:10;9.10;99.90
19007;DHT22;9636;47.382;8.480;2022-11-12T01:00:36;9.10;99.90
19007;DHT22;9636;47.382;8.480;2022-11-12T01:03:03;9.10;99.90
19007;DHT22;9636;47.382;8.480;2022-11-12T01:05:32;9.00;99.90
19007;DHT22;9636;47.382;8.480;2022-11-12T01:08:00;9.00;99.90
19007;DHT22;9636;47.382;8.480;2022-11-12T01:10:27;9.10;99.90
19007;DHT22;9636;47.382;8.480;2022-11-12T01:12:54;9.10;99.90
19007;DHT22;9636;47.382;8.480;2022-11-12T01:15:21;9.10;99.90
19007;DHT22;9636;47.382;8.480;2022-11-12T01:17:47;9.10;99.90
19007;DHT22;9636;47.382;8.480;2022-11-12T01:20:15;9.10;99.90
19007;DHT22;9636;47.382;8.480;2022-11-12T01:22:41;9.10;99.90
19007;DHT22;9636;47.382;8.480;2022-11-12T01:25:10;9.10;99.90
19007;DHT22;9636;47.382;8.480;2022-11-12T01:27:36;9.10;99.90
19007;DHT22;9636;47.382;8.480;2022-11-12T01:30:04;9.10;99.90
19007;DHT22;9636;47.382;8.480;2022-11-12T01:32:34;9.10;99.90
19007;DHT22;9636;47.382;8.480;2022-11-12T01:35:01;9.10;99.90
19007;DHT22;9636;47.382;8.480;2022-11-12T01:37:28;9.10;99.90
19007;DHT22;9636;47.382;8.480;2022-11-12T01:39:54;9.10;99.90
19007;DHT22;9636;47.382;8.480;2022-11-12T01:42:25;9.20;99.90
19007;DHT22;9636;47.382;8.480;2022-11-12T01:44:52;9.20;99.90
19007;DHT22;9636;47.382;8.480;2022-11-12T01:47:21;9.10;99.90
19007;DHT22;9636;47.382;8.480;2022-11-12T01:49:51;9.10;99.90
19007;DHT22;9636;47.382;8.480;2022-11-12T01:52:22;9.20;99.90
19007;DHT22;9636;47.382;8.480;2022-11-12T01:54:52;9.10;99.90
19007;DHT22;9636;47.382;8.480;2022-11-12T01:57:25;9.10;99.90
19007;DHT22;9636;47.382;8.480;2022-11-12T01:59:56;9.10;99.90
19007;DHT22;9636;47.382;8.480;2022-11-12T02:02:24;9.20;99.90
19007;DHT22;9636;47.382;8.480;2022-11-12T02:04:51;9.10;99.90
19007;DHT22;9636;47.382;8.480;2022-11-12T02:07:21;9.10;99.90
19007;DHT22;9636;47.382;8.480;2022-11-12T02:09:49;9.00;99.90
19007;DHT22;9636;47.382;8.480;2022-11-12T02:12:15;9.00;99.90
19007;DHT22;9636;47.382;8.480;2022-11-12T02:14:58;9.00;99.90
19007;DHT22;9636;47.382;8.480;2022-11-12T02:17:24;9.00;99.90
19007;DHT22;9636;47.382;8.480;2022-11-12T02:19:51;9.00;99.90
19007;DHT22;9636;47.382;8.480;2022-11-12T02:22:20;9.10;99.90
19007;DHT22;9636;47.382;8.480;2022-11-12T02:24:47;9.10;99.90
19007;DHT22;9636;47.382;8.480;2022-11-12T02:27:13;9.10;99.90
19007;DHT22;9636;47.382;8.480;2022-11-12T02:29:40;9.20;99.90
19007;DHT22;9636;47.382;8.480;2022-11-12T02:32:10;9.20;99.90
19007;DHT22;9636;47.382;8.480;2022-11-12T02:34:37;9.20;99.90
19007;DHT22;9636;47.382;8.480;2022-11-12T02:37:05;9.20;99.90
19007;DHT22;9636;47.382;8.480;2022-11-12T02:39:33;9.20;99.90
19007;DHT22;9636;47.382;8.480;2022-11-12T02:42:00;9.10;99.90
19007;DHT22;9636;47.382;8.480;2022-11-12T02:44:27;9.10;99.90
19007;DHT22;9636;47.382;8.480;2022-11-12T02:46:54;9.00;99.90
19007;DHT22;9636;47.382;8.480;2022-11-12T02:49:21;9.10;99.90
19007;DHT22;9636;47.382;8.480;2022-11-12T02:51:48;9.00;99.90
19007;DHT22;9636;47.382;8.480;2022-11-12T02:54:14;9.00;99.90
19007;DHT22;9636;47.382;8.480;2022-11-12T02:56:42;9.00;99.90
19007;DHT22;9636;47.382;8.480;2022-11-12T02:59:09;9.10;99.90
19007;DHT22;9636;47.382;8.480;2022-11-12T03:01:36;9.10;99.90
19007;DHT22;9636;47.382;8.480;2022-11-12T03:04:03;9.10;99.90
19007;DHT22;9636;47.382;8.480;2022-11-12T03:06:30;9.00;99.90
19007;DHT22;9636;47.382;8.480;2022-11-12T03:08:57;9.00;99.90
19007;DHT22;9636;47.382;8.480;2022-11-12T03:11:23;9.10;99.90
19007;DHT22;9636;47.382;8.480;2022-11-12T03:13:53;9.10;99.90
19007;DHT22;9636;47.382;8.480;2022-11-12T03:16:20;9.00;99.90
19007;DHT22;9636;47.382;8.480;2022-11-12T03:18:46;8.90;99.90
19007;DHT22;9636;47.382;8.480;2022-11-12T03:21:13;9.00;99.90
19007;DHT22;9636;47.382;8.480;2022-11-12T03:23:40;9.00;99.90
19007;DHT22;9636;47.382;8.480;2022-11-12T03:26:07;9.00;99.90
19007;DHT22;9636;47.382;8.480;2022-11-12T03:28:33;9.00;99.90
19007;DHT22;9636;47.382;8.480;2022-11-12T03:31:02;9.00;99.90
19007;DHT22;9636;47.382;8.480;2022-11-12T03:33:28;9.00;99.90
19007;DHT22;9636;47.382;8.480;2022-11-12T03:35:55;9.00;99.90
19007;DHT22;9636;47.382;8.480;2022-11-12T03:38:22;8.90;99.90
19007;DHT22;9636;47.382;8.480;2022-11-12T03:40:49;8.90;99.90
19007;DHT22;9636;47.382;8.480;2022-11-12T03:43:16;8.90;99.90
19007;DHT22;9636;47.382;8.480;2022-11-12T03:45:42;8.90;99.90
19007;DHT22;9636;47.382;8.480;2022-11-12T03:48:11;8.90;99.90
19007;DHT22;9636;47.382;8.480;2022-11-12T03:50:37;8.90;99.90
19007;DHT22;9636;47.382;8.480;2022-11-12T03:53:04;8.90;99.90
19007;DHT22;9636;47.382;8.480;2022-11-12T03:55:31;8.90;99.90
19007;DHT22;9636;47.382;8.480;2022-11-12T03:57:58;8.90;99.90
19007;DHT22;9636;47.382;8.480;2022-11-12T04:00:26;8.90;99.90
19007;DHT22;9636;47.382;8.480;2022-11-12T04:02:54;8.90;99.90
19007;DHT22;9636;47.382;8.480;2022-11-12T04:05:24;8.80;99.90
19007;DHT22;9636;47.382;8.480;2022-11-12T04:08:12;8.80;99.90
19007;DHT22;9636;47.382;8.480;2022-11-12T04:10:57;8.80;99.90
19007;DHT22;9636;47.382;8.480;2022-11-12T04:13:24;8.80;99.90
19007;DHT22;9636;47.382;8.480;2022-11-12T04:15:53;8.70;99.90
19007;DHT22;9636;47.382;8.480;2022-11-12T04:18:34;8.70;99.90
19007;DHT22;9636;47.382;8.480;2022-11-12T04:21:19;8.70;99.90
19007;DHT22;9636;47.382;8.480;2022-11-12T04:24:04;8.70;99.90
19007;DHT22;9636;47.382;8.480;2022-11-12T04:26:31;8.70;99.90
19007;DHT22;9636;47.382;8.480;2022-11-12T04:28:57;8.70;99.90
19007;DHT22;9636;47.382;8.480;2022-11-12T04:31:41;8.70;99.90
19007;DHT22;9636;47.382;8.480;2022-11-12T04:34:08;8.60;99.90
19007;DHT22;9636;47.382;8.480;2022-11-12T04:36:54;8.60;99.90
19007;DHT22;9636;47.382;8.480;2022-11-12T04:39:20;8.70;99.90
19007;DHT22;9636;47.382;8.480;2022-11-12T04:41:47;8.70;99.90
19007;DHT22;9636;47.382;8.480;2022-11-12T04:44:31;8.60;99.90
19007;DHT22;9636;47.382;8.480;2022-11-12T04:47:16;8.70;99.90
19007;DHT22;9636;47.382;8.480;2022-11-12T04:49:42;8.60;99.90
19007;DHT22;9636;47.382;8.480;2022-11-12T04:52:11;8.60;99.90
19007;DHT22;9636;47.382;8.480;2022-11-12T04:54:37;8.60;99.90
19007;DHT22;9636;47.382;8.480;2022-11-12T04:57:04;8.60;99.90
19007;DHT22;9636;47.382;8.480;2022-11-12T04:59:31;8.60;99.90
19007;DHT22;9636;47.382;8.480;2022-11-12T05:01:58;8.60;99.90
19007;DHT22;9636;47.382;8.480;2022-11-12T05:04:25;8.60;99.90
19007;DHT22;9636;47.382;8.480;2022-11-12T05:06:54;8.60;99.90
19007;DHT22;9636;47.382;8.480;2022-11-12T05:09:24;8.60;99.90
19007;DHT22;9636;47.382;8.480;2022-11-12T05:11:51;8.60;99.90
19007;DHT22;9636;47.382;8.480;2022-11-12T05:14:20;8.60;99.90
19007;DHT22;9636;47.382;8.480;2022-11-12T05:16:47;8.60;99.90
19007;DHT22;9636;47.382;8.480;2022-11-12T05:19:14;8.60;99.90
19007;DHT22;9636;47.382;8.480;2022-11-12T05:21:41;8.70;99.90
19007;DHT22;9636;47.382;8.480;2022-11-12T05:24:27;8.60;99.90
19007;DHT22;9636;47.382;8.480;2022-11-12T05:26:54;8.70;99.90
19007;DHT22;9636;47.382;8.480;2022-11-12T05:29:20;8.70;99.90
19007;DHT22;9636;47.382;8.480;2022-11-12T05:31:47;8.70;99.90
19007;DHT22;9636;47.382;8.480;2022-11-12T05:34:14;8.70;99.90
19007;DHT22;9636;47.382;8.480;2022-11-12T05:36:41;8.70;99.90
19007;DHT22;9636;47.382;8.480;2022-11-12T05:39:08;8.60;99.90
19007;DHT22;9636;47.382;8.480;2022-11-12T05:41:36;8.50;99.90
19007;DHT22;9636;47.382;8.480;2022-11-12T05:44:03;8.40;99.90
19007;DHT22;9636;47.382;8.480;2022-11-12T05:46:30;8.30;99.90
19007;DHT22;9636;47.382;8.480;2022-11-12T05:48:57;8.30;99.90
19007;DHT22;9636;47.382;8.480;2022-11-12T05:51:23;8.30;99.90
19007;DHT22;9636;47.382;8.480;2022-11-12T05:53:50;8.30;99.90
19007;DHT22;9636;47.382;8.480;2022-11-12T05:56:17;8.30;99.90
19007;DHT22;9636;47.382;8.480;2022-11-12T05:58:45;8.30;99.90
19007;DHT22;9636;47.382;8.480;2022-11-12T06:01:12;8.30;99.90
19007;DHT22;9636;47.382;8.480;2022-11-12T06:03:39;8.30;99.90
19007;DHT22;9636;47.382;8.480;2022-11-12T06:06:06;8.30;99.90
19007;DHT22;9636;47.382;8.480;2022-11-12T06:08:33;8.20;99.90
19007;DHT22;9636;47.382;8.480;2022-11-12T06:11:00;8.20;99.90
19007;DHT22;9636;47.382;8.480;2022-11-12T06:13:27;8.20;99.90
19007;DHT22;9636;47.382;8.480;2022-11-12T06:15:56;8.20;99.90
19007;DHT22;9636;47.382;8.480;2022-11-12T06:18:24;8.30;99.90
19007;DHT22;9636;47.382;8.480;2022-11-12T06:20:51;8.30;99.90
19007;DHT22;9636;47.382;8.480;2022-11-12T06:23:32;8.30;99.90
19007;DHT22;9636;47.382;8.480;2022-11-12T06:25:59;8.30;99.90
19007;DHT22;9636;47.382;8.480;2022-11-12T06:28:25;8.30;99.90
19007;DHT22;9636;47.382;8.480;2022-11-12T06:30:52;8.30;99.90
19007;DHT22;9636;47.382;8.480;2022-11-12T06:33:21;8.30;99.90
19007;DHT22;9636;47.382;8.480;2022-11-12T06:35:55;8.30;99.90
19007;DHT22;9636;47.382;8.480;2022-11-12T06:38:22;8.30;99.90
19007;DHT22;9636;47.382;8.480;2022-11-12T06:40:49;8.40;99.90
19007;DHT22;9636;47.382;8.480;2022-11-12T06:43:16;8.40;99.90
19007;DHT22;9636;47.382;8.480;2022-11-12T06:45:43;8.40;99.90
19007;DHT22;9636;47.382;8.480;2022-11-12T06:48:10;8.40;99.90
19007;DHT22;9636;47.382;8.480;2022-11-12T06:50:38;8.40;99.90
19007;DHT22;9636;47.382;8.480;2022-11-12T06:53:07;8.50;99.90
19007;DHT22;9636;47.382;8.480;2022-11-12T06:55:34;8.40;99.90
19007;DHT22;9636;47.382;8.480;2022-11-12T06:58:01;8.50;99.90
19007;DHT22;9636;47.382;8.480;2022-11-12T07:00:28;8.50;99.90
19007;DHT22;9636;47.382;8.480;2022-11-12T07:02:54;8.50;99.90
19007;DHT22;9636;47.382;8.480;2022-11-12T07:05:21;8.50;99.90
19007;DHT22;9636;47.382;8.480;2022-11-12T07:07:50;8.50;99.90
19007;DHT22;9636;47.382;8.480;2022-11-12T07:10:17;8.50;99.90
19007;DHT22;9636;47.382;8.480;2022-11-12T07:12:43;8.50;99.90
19007;DHT22;9636;47.382;8.480;2022-11-12T07:15:10;8.50;99.90
19007;DHT22;9636;47.382;8.480;2022-11-12T07:17:37;8.60;99.90
19007;DHT22;9636;47.382;8.480;2022-11-12T07:20:05;8.60;99.90
19007;DHT22;9636;47.382;8.480;2022-11-12T07:22:32;8.70;99.90
19007;DHT22;9636;47.382;8.480;2022-11-12T07:25:01;8.70;99.90
19007;DHT22;9636;47.382;8.480;2022-11-12T07:27:28;8.70;99.90
19007;DHT22;9636;47.382;8.480;2022-11-12T07:29:56;8.70;99.90
19007;DHT22;9636;47.382;8.480;2022-11-12T07:32:23;8.70;99.90
19007;DHT22;9636;47.382;8.480;2022-11-12T07:34:50;8.80;99.90
19007;DHT22;9636;47.382;8.480;2022-11-12T07:37:17;8.80;99.90
19007;DHT22;9636;47.382;8.480;2022-11-12T07:39:43;8.80;99.90
19007;DHT22;9636;47.382;8.480;2022-11-12T07:42:12;8.80;99.90
19007;DHT22;9636;47.382;8.480;2022-11-12T07:44:39;8.90;99.90
19007;DHT22;9636;47.382;8.480;2022-11-12T07:47:06;8.80;99.90
19007;DHT22;9636;47.382;8.480;2022-11-12T07:49:32;8.70;99.90
19007;DHT22;9636;47.382;8.480;2022-11-12T07:51:59;8.80;99.90
19007;DHT22;9636;47.382;8.480;2022-11-12T07:54:26;8.90;99.90
19007;DHT22;9636;47.382;8.480;2022-11-12T07:56:53;8.90;99.90
19007;DHT22;9636;47.382;8.480;2022-11-12T07:59:21;8.90;99.90
19007;DHT22;9636;47.382;8.480;2022-11-12T08:01:48;9.00;99.90
19007;DHT22;9636;47.382;8.480;2022-11-12T08:04:15;9.00;99.90
19007;DHT22;9636;47.382;8.480;2022-11-12T08:06:42;8.90;99.90
19007;DHT22;9636;47.382;8.480;2022-11-12T08:09:09;9.00;99.90
19007;DHT22;9636;47.382;8.480;2022-11-12T08:11:36;8.90;99.90
19007;DHT22;9636;47.382;8.480;2022-11-12T08:14:03;8.90;99.90
19007;DHT22;9636;47.382;8.480;2022-11-12T08:16:31;8.90;99.90
19007;DHT22;9636;47.382;8.480;2022-11-12T08:18:59;8.90;99.90
19007;DHT22;9636;47.382;8.480;2022-11-12T08:21:25;9.00;99.90
19007;DHT22;9636;47.382;8.480;2022-11-12T08:23:52;9.00;99.90
19007;DHT22;9636;47.382;8.480;2022-11-12T08:26:20;9.00;99.90
19007;DHT22;9636;47.382;8.480;2022-11-12T08:28:47;9.10;99.90
19007;DHT22;9636;47.382;8.480;2022-11-12T08:31:15;9.10;99.90
19007;DHT22;9636;47.382;8.480;2022-11-12T08:33:44;9.10;99.90
19007;DHT22;9636;47.382;8.480;2022-11-12T08:36:13;9.10;99.90
19007;DHT22;9636;47.382;8.480;2022-11-12T08:38:40;9.10;99.90
19007;DHT22;9636;47.382;8.480;2022-11-12T08:41:08;9.10;99.90
19007;DHT22;9636;47.382;8.480;2022-11-12T08:43:38;9.10;99.90
19007;DHT22;9636;47.382;8.480;2022-11-12T08:46:05;9.20;99.90
19007;DHT22;9636;47.382;8.480;2022-11-12T08:48:33;9.20;99.90
19007;DHT22;9636;47.382;8.480;2022-11-12T08:51:02;9.20;99.90
19007;DHT22;9636;47.382;8.480;2022-11-12T08:53:29;9.20;99.90
19007;DHT22;9636;47.382;8.480;2022-11-12T08:55:57;9.30;99.90
19007;DHT22;9636;47.382;8.480;2022-11-12T08:58:24;9.30;99.90
19007;DHT22;9636;47.382;8.480;2022-11-12T09:00:52;9.40;99.90
19007;DHT22;9636;47.382;8.480;2022-11-12T09:03:20;9.30;99.90
19007;DHT22;9636;47.382;8.480;2022-11-12T09:05:48;9.30;99.90
19007;DHT22;9636;47.382;8.480;2022-11-12T09:08:18;9.40;99.90
19007;DHT22;9636;47.382;8.480;2022-11-12T09:10:45;9.40;99.90
19007;DHT22;9636;47.382;8.480;2022-11-12T09:13:12;9.40;99.90
19007;DHT22;9636;47.382;8.480;2022-11-12T09:15:39;9.30;99.90
19007;DHT22;9636;47.382;8.480;2022-11-12T09:18:09;9.30;99.90
19007;DHT22;9636;47.382;8.480;2022-11-12T09:20:36;9.30;99.90
19007;DHT22;9636;47.382;8.480;2022-11-12T09:23:05;9.40;99.90
19007;DHT22;9636;47.382;8.480;2022-11-12T09:25:34;9.50;99.90
19007;DHT22;9636;47.382;8.480;2022-11-12T09:28:05;9.60;99.90
19007;DHT22;9636;47.382;8.480;2022-11-12T09:30:32;9.70;99.90
19007;DHT22;9636;47.382;8.480;2022-11-12T09:32:59;9.70;99.90
19007;DHT22;9636;47.382;8.480;2022-11-12T09:35:26;9.60;99.90
19007;DHT22;9636;47.382;8.480;2022-11-12T09:37:53;9.50;99.90
19007;DHT22;9636;47.382;8.480;2022-11-12T09:40:20;9.40;99.90
19007;DHT22;9636;47.382;8.480;2022-11-12T09:42:51;9.60;99.90
19007;DHT22;9636;47.382;8.480;2022-11-12T09:45:21;9.50;99.90
19007;DHT22;9636;47.382;8.480;2022-11-12T09:47:54;9.40;99.90
19007;DHT22;9636;47.382;8.480;2022-11-12T09:50:25;9.50;99.90
19007;DHT22;9636;47.382;8.480;2022-11-12T09:52:59;9.50;99.90
19007;DHT22;9636;47.382;8.480;2022-11-12T09:55:31;9.60;99.90
19007;DHT22;9636;47.382;8.480;2022-11-12T09:58:00;9.70;99.90
19007;DHT22;9636;47.382;8.480;2022-11-12T10:00:28;9.80;99.90
19007;DHT22;9636;47.382;8.480;2022-11-12T10:03:00;9.80;99.90
19007;DHT22;9636;47.382;8.480;2022-11-12T10:05:31;9.80;99.90
19007;DHT22;9636;47.382;8.480;2022-11-12T10:08:08;9.90;99.90
19007;DHT22;9636;47.382;8.480;2022-11-12T10:10:41;9.90;99.90
19007;DHT22;9636;47.382;8.480;2022-11-12T10:13:30;10.00;99.90
19007;DHT22;9636;47.382;8.480;2022-11-12T10:16:07;10.10;99.90
19007;DHT22;9636;47.382;8.480;2022-11-12T10:19:10;10.10;99.90
19007;DHT22;9636;47.382;8.480;2022-11-12T10:21:45;10.00;99.90
19007;DHT22;9636;47.382;8.480;2022-11-12T10:24:20;10.00;99.90
19007;DHT22;9636;47.382;8.480;2022-11-12T10:26:47;10.10;99.90
19007;DHT22;9636;47.382;8.480;2022-11-12T10:29:24;10.10;99.90
19007;DHT22;9636;47.382;8.480;2022-11-12T10:31:52;10.20;99.90
19007;DHT22;9636;47.382;8.480;2022-11-12T10:34:20;10.10;99.90
19007;DHT22;9636;47.382;8.480;2022-11-12T10:36:50;10.10;99.90
19007;DHT22;9636;47.382;8.480;2022-11-12T10:39:32;10.00;99.90
19007;DHT22;9636;47.382;8.480;2022-11-12T10:42:05;10.00;99.90
19007;DHT22;9636;47.382;8.480;2022-11-12T10:44:34;10.10;99.90
19007;DHT22;9636;47.382;8.480;2022-11-12T10:47:23;10.00;99.90
19007;DHT22;9636;47.382;8.480;2022-11-12T10:50:09;10.00;99.90
19007;DHT22;9636;47.382;8.480;2022-11-12T10:52:36;10.00;99.90
19007;DHT22;9636;47.382;8.480;2022-11-12T10:55:06;10.10;99.90
19007;DHT22;9636;47.382;8.480;2022-11-12T10:57:39;10.20;99.90
19007;DHT22;9636;47.382;8.480;2022-11-12T11:00:15;10.20;99.90
19007;DHT22;9636;47.382;8.480;2022-11-12T11:02:46;10.30;99.90
19007;DHT22;9636;47.382;8.480;2022-11-12T11:05:47;10.30;99.90
19007;DHT22;9636;47.382;8.480;2022-11-12T11:08:31;10.40;99.90
19007;DHT22;9636;47.382;8.480;2022-11-12T11:11:20;10.50;99.90
19007;DHT22;9636;47.382;8.480;2022-11-12T11:13:49;10.50;99.90
19007;DHT22;9636;47.382;8.480;2022-11-12T11:16:19;10.60;99.90
19007;DHT22;9636;47.382;8.480;2022-11-12T11:18:49;10.70;99.90
19007;DHT22;9636;47.382;8.480;2022-11-12T11:21:31;10.70;99.90
19007;DHT22;9636;47.382;8.480;2022-11-12T11:24:06;10.80;99.90
19007;DHT22;9636;47.382;8.480;2022-11-12T11:26:46;10.90;99.90
19007;DHT22;9636;47.382;8.480;2022-11-12T11:29:25;10.90;99.90
19007;DHT22;9636;47.382;8.480;2022-11-12T11:32:00;11.00;99.90
19007;DHT22;9636;47.382;8.480;2022-11-12T11:34:38;10.90;99.90
19007;DHT22;9636;47.382;8.480;2022-11-12T11:37:23;10.90;99.90
19007;DHT22;9636;47.382;8.480;2022-11-12T11:39:59;10.80;99.90
19007;DHT22;9636;47.382;8.480;2022-11-12T11:42:51;10.80;99.90
19007;DHT22;9636;47.382;8.480;2022-11-12T11:45:26;10.70;99.90
19007;DHT22;9636;47.382;8.480;2022-11-12T11:48:03;10.60;99.90
19007;DHT22;9636;47.382;8.480;2022-11-12T11:50:35;10.60;99.90
19007;DHT22;9636;47.382;8.480;2022-11-12T11:53:15;10.70;99.90
19007;DHT22;9636;47.382;8.480;2022-11-12T11:55:52;10.80;99.90
19007;DHT22;9636;47.382;8.480;2022-11-12T11:58:43;10.80;99.90
19007;DHT22;9636;47.382;8.480;2022-11-12T12:01:19;10.80;99.90
19007;DHT22;9636;47.382;8.480;2022-11-12T12:04:02;10.80;99.90
19007;DHT22;9636;47.382;8.480;2022-11-12T12:06:37;10.80;99.90
19007;DHT22;9636;47.382;8.480;2022-11-12T12:09:21;10.70;99.90
19007;DHT22;9636;47.382;8.480;2022-11-12T12:11:54;10.70;99.90
19007;DHT22;9636;47.382;8.480;2022-11-12T12:14:44;10.70;99.90
19007;DHT22;9636;47.382;8.480;2022-11-12T12:17:21;10.80;99.90
19007;DHT22;9636;47.382;8.480;2022-11-12T12:20:00;11.00;99.90
19007;DHT22;9636;47.382;8.480;2022-11-12T12:22:35;11.00;99.90
19007;DHT22;9636;47.382;8.480;2022-11-12T12:25:09;10.90;99.90
19007;DHT22;9636;47.382;8.480;2022-11-12T12:27:44;10.90;99.90
19007;DHT22;9636;47.382;8.480;2022-11-12T12:30:18;11.00;99.90
19007;DHT22;9636;47.382;8.480;2022-11-12T12:32:52;11.10;99.90
19007;DHT22;9636;47.382;8.480;2022-11-12T12:35:25;11.10;99.90
19007;DHT22;9636;47.382;8.480;2022-11-12T12:38:01;11.10;99.90
19007;DHT22;9636;47.382;8.480;2022-11-12T12:40:33;11.10;99.90
19007;DHT22;9636;47.382;8.480;2022-11-12T12:43:06;11.10;99.90
19007;DHT22;9636;47.382;8.480;2022-11-12T12:45:39;11.00;99.90
19007;DHT22;9636;47.382;8.480;2022-11-12T12:48:12;11.10;99.90
19007;DHT22;9636;47.382;8.480;2022-11-12T12:50:42;11.20;99.90
19007;DHT22;9636;47.382;8.480;2022-11-12T12:53:29;11.10;99.90
19007;DHT22;9636;47.382;8.480;2022-11-12T12:55:58;11.20;99.90
19007;DHT22;9636;47.382;8.480;2022-11-12T12:58:26;11.30;99.90
19007;DHT22;9636;47.382;8.480;2022-11-12T13:00:58;11.20;99.90
19007;DHT22;9636;47.382;8.480;2022-11-12T13:03:47;11.10;99.90
19007;DHT22;9636;47.382;8.480;2022-11-12T13:06:22;11.00;99.90
19007;DHT22;9636;47.382;8.480;2022-11-12T13:08:51;11.10;99.90
19007;DHT22;9636;47.382;8.480;2022-11-12T13:11:50;11.20;99.90
19007;DHT22;9636;47.382;8.480;2022-11-12T13:15:10;11.30;99.90
19007;DHT22;9636;47.382;8.480;2022-11-12T13:17:46;11.30;99.90
19007;DHT22;9636;47.382;8.480;2022-11-12T13:20:32;11.30;99.90
19007;DHT22;9636;47.382;8.480;2022-11-12T13:23:01;11.30;99.90
19007;DHT22;9636;47.382;8.480;2022-11-12T13:25:29;11.40;99.90
19007;DHT22;9636;47.382;8.480;2022-11-12T13:28:11;11.30;99.90
19007;DHT22;9636;47.382;8.480;2022-11-12T13:31:02;11.30;99.90
19007;DHT22;9636;47.382;8.480;2022-11-12T13:33:31;11.30;99.90
19007;DHT22;9636;47.382;8.480;2022-11-12T13:36:26;11.30;99.90
19007;DHT22;9636;47.382;8.480;2022-11-12T13:39:09;11.20;99.90
19007;DHT22;9636;47.382;8.480;2022-11-12T13:41:38;11.20;99.90
19007;DHT22;9636;47.382;8.480;2022-11-12T13:44:22;11.20;99.90
19007;DHT22;9636;47.382;8.480;2022-11-12T13:46:51;11.10;99.90
19007;DHT22;9636;47.382;8.480;2022-11-12T13:49:20;11.10;99.90
19007;DHT22;9636;47.382;8.480;2022-11-12T13:51:48;11.10;99.90
19007;DHT22;9636;47.382;8.480;2022-11-12T13:54:26;10.90;99.90
19007;DHT22;9636;47.382;8.480;2022-11-12T13:56:53;10.80;99.90
19007;DHT22;9636;47.382;8.480;2022-11-12T13:59:22;10.70;99.90
19007;DHT22;9636;47.382;8.480;2022-11-12T14:01:50;10.80;99.90
19007;DHT22;9636;47.382;8.480;2022-11-12T14:04:19;10.80;99.90
19007;DHT22;9636;47.382;8.480;2022-11-12T14:06:49;10.90;99.90
19007;DHT22;9636;47.382;8.480;2022-11-12T14:12:26;10.80;99.90
19007;DHT22;9636;47.382;8.480;2022-11-12T14:15:06;10.80;99.90
19007;DHT22;9636;47.382;8.480;2022-11-12T14:17:45;10.80;99.90
19007;DHT22;9636;47.382;8.480;2022-11-12T14:20:24;10.80;99.90
19007;DHT22;9636;47.382;8.480;2022-11-12T14:22:55;10.70;99.90
19007;DHT22;9636;47.382;8.480;2022-11-12T14:25:23;10.70;99.90
19007;DHT22;9636;47.382;8.480;2022-11-12T14:27:52;10.60;99.90
19007;DHT22;9636;47.382;8.480;2022-11-12T14:30:21;10.60;99.90
19007;DHT22;9636;47.382;8.480;2022-11-12T14:32:50;10.60;99.90
19007;DHT22;9636;47.382;8.480;2022-11-12T14:35:30;10.60;99.90
19007;DHT22;9636;47.382;8.480;2022-11-12T14:38:17;10.60;99.90
19007;DHT22;9636;47.382;8.480;2022-11-12T14:40:49;10.50;99.90
19007;DHT22;9636;47.382;8.480;2022-11-12T14:43:28;10.40;99.90
19007;DHT22;9636;47.382;8.480;2022-11-12T14:45:58;10.50;99.90
19007;DHT22;9636;47.382;8.480;2022-11-12T14:48:25;10.50;99.90
19007;DHT22;9636;47.382;8.480;2022-11-12T14:50:56;10.50;99.90
19007;DHT22;9636;47.382;8.480;2022-11-12T14:53:28;10.40;99.90
19007;DHT22;9636;47.382;8.480;2022-11-12T14:55:58;10.40;99.90
19007;DHT22;9636;47.382;8.480;2022-11-12T14:58:28;10.30;99.90
19007;DHT22;9636;47.382;8.480;2022-11-12T15:00:56;10.20;99.90
19007;DHT22;9636;47.382;8.480;2022-11-12T15:03:24;10.20;99.90
19007;DHT22;9636;47.382;8.480;2022-11-12T15:05:58;10.10;99.90
19007;DHT22;9636;47.382;8.480;2022-11-12T15:08:33;10.00;99.90
19007;DHT22;9636;47.382;8.480;2022-11-12T15:11:22;10.00;99.90
19007;DHT22;9636;47.382;8.480;2022-11-12T15:13:53;10.00;99.90
19007;DHT22;9636;47.382;8.480;2022-11-12T15:16:24;9.90;99.90
19007;DHT22;9636;47.382;8.480;2022-11-12T15:19:12;9.90;99.90
19007;DHT22;9636;47.382;8.480;2022-11-12T15:21:44;9.90;99.90
19007;DHT22;9636;47.382;8.480;2022-11-12T15:24:17;9.80;99.90
19007;DHT22;9636;47.382;8.480;2022-11-12T15:26:47;9.70;99.90
19007;DHT22;9636;47.382;8.480;2022-11-12T15:29:26;9.60;99.90
19007;DHT22;9636;47.382;8.480;2022-11-12T15:31:55;9.60;99.90
19007;DHT22;9636;47.382;8.480;2022-11-12T15:34:32;9.50;99.90
19007;DHT22;9636;47.382;8.480;2022-11-12T15:37:03;9.40;99.90
19007;DHT22;9636;47.382;8.480;2022-11-12T15:39:33;9.40;99.90
19007;DHT22;9636;47.382;8.480;2022-11-12T15:42:13;9.40;99.90
19007;DHT22;9636;47.382;8.480;2022-11-12T15:44:42;9.30;99.90
19007;DHT22;9636;47.382;8.480;2022-11-12T15:47:17;9.30;99.90
19007;DHT22;9636;47.382;8.480;2022-11-12T15:49:49;9.30;99.90
19007;DHT22;9636;47.382;8.480;2022-11-12T15:52:17;9.30;99.90
19007;DHT22;9636;47.382;8.480;2022-11-12T15:54:44;9.40;99.90
19007;DHT22;9636;47.382;8.480;2022-11-12T15:57:13;9.30;99.90
19007;DHT22;9636;47.382;8.480;2022-11-12T15:59:43;9.30;99.90
19007;DHT22;9636;47.382;8.480;2022-11-12T16:02:12;9.20;99.90
19007;DHT22;9636;47.382;8.480;2022-11-12T16:04:39;9.10;99.90
19007;DHT22;9636;47.382;8.480;2022-11-12T16:07:08;9.20;99.90
19007;DHT22;9636;47.382;8.480;2022-11-12T16:09:35;9.20;99.90
19007;DHT22;9636;47.382;8.480;2022-11-12T16:12:03;9.20;99.90
19007;DHT22;9636;47.382;8.480;2022-11-12T16:14:30;9.20;99.90
19007;DHT22;9636;47.382;8.480;2022-11-12T16:16:58;9.20;99.90
19007;DHT22;9636;47.382;8.480;2022-11-12T16:19:25;9.20;99.90
19007;DHT22;9636;47.382;8.480;2022-11-12T16:21:52;9.20;99.90
19007;DHT22;9636;47.382;8.480;2022-11-12T16:24:18;9.20;99.90